sensor_id;sensor_type;location;lat;lon;timestamp;temperature;humidity
53268;DHT22;39156;51.176;6.738;2023-01-08T00:02:00;10.10;71.70
53268;DHT22;39156;51.176;6.738;2023-01-08T00:04:26;10.10;71.70
53268;DHT22;39156;51.176;6.738;2023-01-08T00:06:52;10.00;71.70
53268;DHT22;39156;51.176;6.738;2023-01-08T00:09:17;10.00;71.80
53268;DHT22;39156;51.176;6.738;2023-01-08T00:11:43;10.00;71.80
53268;DHT22;39156;51.176;6.738;2023-01-08T00:14:09;10.00;71.90
53268;DHT22;39156;51.176;6.738;2023-01-08T00:16:36;10.00;71.90
53268;DHT22;39156;51.176;6.738;2023-01-08T00:19:02;10.00;72.00
53268;DHT22;39156;51.176;6.738;2023-01-08T00:21:28;9.90;72.00
53268;DHT22;39156;51.176;6.738;2023-01-08T00:23:54;9.90;72.10
53268;DHT22;39156;51.176;6.738;2023-01-08T00:26:20;9.80;72.10
53268;DHT22;39156;51.176;6.738;2023-01-08T00:28:45;9.80;72.30
53268;DHT22;39156;51.176;6.738;2023-01-08T00:31:11;9.80;72.40
53268;DHT22;39156;51.176;6.738;2023-01-08T00:33:38;9.80;72.50
53268;DHT22;39156;51.176;6.738;2023-01-08T00:36:09;9.70;72.50
53268;DHT22;39156;51.176;6.738;2023-01-08T00:38:39;9.70;72.70
53268;DHT22;39156;51.176;6.738;2023-01-08T00:41:05;9.70;72.70
53268;DHT22;39156;51.176;6.738;2023-01-08T00:43:31;9.70;72.90
53268;DHT22;39156;51.176;6.738;2023-01-08T00:45:57;9.70;73.00
53268;DHT22;39156;51.176;6.738;2023-01-08T00:48:23;9.70;73.00
53268;DHT22;39156;51.176;6.738;2023-01-08T00:50:53;9.70;73.10
53268;DHT22;39156;51.176;6.738;2023-01-08T00:53:20;9.70;73.10
53268;DHT22;39156;51.176;6.738;2023-01-08T00:55:46;9.80;73.10
53268;DHT22;39156;51.176;6.738;2023-01-08T00:58:12;9.80;73.20
53268;DHT22;39156;51.176;6.738;2023-01-08T01:00:38;9.80;73.10
53268;DHT22;39156;51.176;6.738;2023-01-08T01:03:04;9.70;73.10
53268;DHT22;39156;51.176;6.738;2023-01-08T01:05:30;9.80;73.10
53268;DHT22;39156;51.176;6.738;2023-01-08T01:07:56;9.70;73.10
53268;DHT22;39156;51.176;6.738;2023-01-08T01:10:22;9.80;73.20
53268;DHT22;39156;51.176;6.738;2023-01-08T01:12:48;9.80;73.20
53268;DHT22;39156;51.176;6.738;2023-01-08T01:15:16;9.80;73.30
53268;DHT22;39156;51.176;6.738;2023-01-08T01:17:44;9.80;73.30
53268;DHT22;39156;51.176;6.738;2023-01-08T01:20:13;9.80;73.20
53268;DHT22;39156;51.176;6.738;2023-01-08T01:22:40;9.80;73.20
53268;DHT22;39156;51.176;6.738;2023-01-08T01:25:06;9.80;73.30
53268;DHT22;39156;51.176;6.738;2023-01-08T01:27:32;9.80;73.30
53268;DHT22;39156;51.176;6.738;2023-01-08T01:29:58;9.90;73.30
53268;DHT22;39156;51.176;6.738;2023-01-08T01:32:24;9.70;73.30
53268;DHT22;39156;51.176;6.738;2023-01-08T01:34:49;9.90;73.40
53268;DHT22;39156;51.176;6.738;2023-01-08T01:37:15;9.80;73.40
53268;DHT22;39156;51.176;6.738;2023-01-08T01:39:41;9.90;73.50
53268;DHT22;39156;51.176;6.738;2023-01-08T01:42:12;9.90;73.50
53268;DHT22;39156;51.176;6.738;2023-01-08T01:44:57;9.80;73.40
53268;DHT22;39156;51.176;6.738;2023-01-08T01:47:31;9.80;73.50
53268;DHT22;39156;51.176;6.738;2023-01-08T01:50:11;9.80;73.70
53268;DHT22;39156;51.176;6.738;2023-01-08T01:53:02;9.80;73.90
53268;DHT22;39156;51.176;6.738;2023-01-08T01:55:59;9.80;73.90
53268;DHT22;39156;51.176;6.738;2023-01-08T01:58:28;9.80;73.70
53268;DHT22;39156;51.176;6.738;2023-01-08T02:00:57;9.80;73.80
53268;DHT22;39156;51.176;6.738;2023-01-08T02:03:29;9.80;74.00
53268;DHT22;39156;51.176;6.738;2023-01-08T02:09:05;9.90;74.50
53268;DHT22;39156;51.176;6.738;2023-01-08T02:14:52;9.80;74.60
53268;DHT22;39156;51.176;6.738;2023-01-08T02:20:59;9.80;74.80
53268;DHT22;39156;51.176;6.738;2023-01-08T02:26:32;9.70;74.90
53268;DHT22;39156;51.176;6.738;2023-01-08T02:29:09;9.70;74.40
53268;DHT22;39156;51.176;6.738;2023-01-08T02:31:39;9.60;75.30
53268;DHT22;39156;51.176;6.738;2023-01-08T02:34:06;9.60;74.60
53268;DHT22;39156;51.176;6.738;2023-01-08T02:39:14;9.60;75.30
53268;DHT22;39156;51.176;6.738;2023-01-08T02:42:05;9.70;74.70
53268;DHT22;39156;51.176;6.738;2023-01-08T02:45:15;9.60;75.00
53268;DHT22;39156;51.176;6.738;2023-01-08T02:51:08;9.60;75.30
53268;DHT22;39156;51.176;6.738;2023-01-08T02:53:44;9.60;75.00
53268;DHT22;39156;51.176;6.738;2023-01-08T02:56:24;9.60;75.00
53268;DHT22;39156;51.176;6.738;2023-01-08T02:58:53;9.60;75.20
53268;DHT22;39156;51.176;6.738;2023-01-08T03:01:21;9.60;75.00
53268;DHT22;39156;51.176;6.738;2023-01-08T03:04:09;9.70;75.10
53268;DHT22;39156;51.176;6.738;2023-01-08T03:06:39;9.70;75.40
53268;DHT22;39156;51.176;6.738;2023-01-08T03:09:05;9.60;75.10
53268;DHT22;39156;51.176;6.738;2023-01-08T03:11:39;9.70;75.20
53268;DHT22;39156;51.176;6.738;2023-01-08T03:15:19;9.60;75.30
53268;DHT22;39156;51.176;6.738;2023-01-08T03:17:29;9.70;75.40
53268;DHT22;39156;51.176;6.738;2023-01-08T03:20:02;9.60;75.20
53268;DHT22;39156;51.176;6.738;2023-01-08T03:22:33;9.60;75.20
53268;DHT22;39156;51.176;6.738;2023-01-08T03:25:03;9.70;75.20
53268;DHT22;39156;51.176;6.738;2023-01-08T03:27:32;9.60;75.30
53268;DHT22;39156;51.176;6.738;2023-01-08T03:30:06;9.70;76.10
53268;DHT22;39156;51.176;6.738;2023-01-08T03:32:34;9.60;75.60
53268;DHT22;39156;51.176;6.738;2023-01-08T03:35:01;9.60;75.60
53268;DHT22;39156;51.176;6.738;2023-01-08T03:37:34;9.60;75.70
53268;DHT22;39156;51.176;6.738;2023-01-08T03:42:36;9.70;76.10
53268;DHT22;39156;51.176;6.738;2023-01-08T03:45:02;9.60;75.90
53268;DHT22;39156;51.176;6.738;2023-01-08T03:47:29;9.60;75.90
53268;DHT22;39156;51.176;6.738;2023-01-08T03:49:59;9.60;76.00
53268;DHT22;39156;51.176;6.738;2023-01-08T03:52:28;9.60;76.10
53268;DHT22;39156;51.176;6.738;2023-01-08T03:54:55;9.60;76.10
53268;DHT22;39156;51.176;6.738;2023-01-08T03:57:21;9.60;76.10
53268;DHT22;39156;51.176;6.738;2023-01-08T03:59:47;9.60;76.20
53268;DHT22;39156;51.176;6.738;2023-01-08T04:02:13;9.60;76.30
53268;DHT22;39156;51.176;6.738;2023-01-08T04:04:39;9.60;76.30
53268;DHT22;39156;51.176;6.738;2023-01-08T04:07:06;9.70;76.40
53268;DHT22;39156;51.176;6.738;2023-01-08T04:09:33;9.70;76.40
53268;DHT22;39156;51.176;6.738;2023-01-08T04:11:59;9.60;76.50
53268;DHT22;39156;51.176;6.738;2023-01-08T04:14:25;9.60;76.50
53268;DHT22;39156;51.176;6.738;2023-01-08T04:16:50;9.60;76.60
53268;DHT22;39156;51.176;6.738;2023-01-08T04:19:16;9.50;76.60
53268;DHT22;39156;51.176;6.738;2023-01-08T04:21:42;9.60;76.70
53268;DHT22;39156;51.176;6.738;2023-01-08T04:24:07;9.60;76.80
53268;DHT22;39156;51.176;6.738;2023-01-08T04:26:33;9.60;77.00
53268;DHT22;39156;51.176;6.738;2023-01-08T04:29:02;9.60;77.00
53268;DHT22;39156;51.176;6.738;2023-01-08T04:31:28;9.50;77.00
53268;DHT22;39156;51.176;6.738;2023-01-08T04:33:54;9.60;77.00
53268;DHT22;39156;51.176;6.738;2023-01-08T04:36:20;9.50;77.00
53268;DHT22;39156;51.176;6.738;2023-01-08T04:38:45;9.50;77.10
53268;DHT22;39156;51.176;6.738;2023-01-08T04:41:11;9.50;77.20
53268;DHT22;39156;51.176;6.738;2023-01-08T04:43:37;9.50;77.20
53268;DHT22;39156;51.176;6.738;2023-01-08T04:46:04;9.50;77.10
53268;DHT22;39156;51.176;6.738;2023-01-08T04:48:34;9.50;77.20
53268;DHT22;39156;51.176;6.738;2023-01-08T04:51:01;9.50;77.20
53268;DHT22;39156;51.176;6.738;2023-01-08T04:53:29;9.40;77.10
53268;DHT22;39156;51.176;6.738;2023-01-08T04:56:04;9.50;77.20
53268;DHT22;39156;51.176;6.738;2023-01-08T04:58:33;9.50;77.20
53268;DHT22;39156;51.176;6.738;2023-01-08T05:00:59;9.50;77.10
53268;DHT22;39156;51.176;6.738;2023-01-08T05:03:25;9.50;77.10
53268;DHT22;39156;51.176;6.738;2023-01-08T05:05:51;9.50;77.10
53268;DHT22;39156;51.176;6.738;2023-01-08T05:08:16;9.40;77.00
53268;DHT22;39156;51.176;6.738;2023-01-08T05:10:42;9.50;77.10
53268;DHT22;39156;51.176;6.738;2023-01-08T05:13:08;9.50;77.10
53268;DHT22;39156;51.176;6.738;2023-01-08T05:15:33;9.40;77.00
53268;DHT22;39156;51.176;6.738;2023-01-08T05:18:08;9.50;77.00
53268;DHT22;39156;51.176;6.738;2023-01-08T05:20:34;9.40;77.00
53268;DHT22;39156;51.176;6.738;2023-01-08T05:23:01;9.50;76.70
53268;DHT22;39156;51.176;6.738;2023-01-08T05:25:26;9.40;76.60
53268;DHT22;39156;51.176;6.738;2023-01-08T05:27:52;9.50;76.60
53268;DHT22;39156;51.176;6.738;2023-01-08T05:30:18;9.50;76.50
53268;DHT22;39156;51.176;6.738;2023-01-08T05:32:44;9.40;76.40
53268;DHT22;39156;51.176;6.738;2023-01-08T05:35:09;9.40;76.40
53268;DHT22;39156;51.176;6.738;2023-01-08T05:37:36;9.50;76.40
53268;DHT22;39156;51.176;6.738;2023-01-08T05:40:02;9.40;76.30
53268;DHT22;39156;51.176;6.738;2023-01-08T05:42:28;9.40;76.20
53268;DHT22;39156;51.176;6.738;2023-01-08T05:44:54;9.30;76.20
53268;DHT22;39156;51.176;6.738;2023-01-08T05:47:20;9.40;76.30
53268;DHT22;39156;51.176;6.738;2023-01-08T05:49:46;9.40;76.40
53268;DHT22;39156;51.176;6.738;2023-01-08T05:52:12;9.40;76.30
53268;DHT22;39156;51.176;6.738;2023-01-08T05:54:37;9.40;76.40
53268;DHT22;39156;51.176;6.738;2023-01-08T05:57:03;9.30;76.20
53268;DHT22;39156;51.176;6.738;2023-01-08T05:59:29;9.20;76.10
53268;DHT22;39156;51.176;6.738;2023-01-08T06:01:54;9.40;76.10
53268;DHT22;39156;51.176;6.738;2023-01-08T06:04:20;9.30;76.00
53268;DHT22;39156;51.176;6.738;2023-01-08T06:06:46;9.20;76.00
53268;DHT22;39156;51.176;6.738;2023-01-08T06:09:12;9.20;75.90
53268;DHT22;39156;51.176;6.738;2023-01-08T06:11:37;9.20;75.80
53268;DHT22;39156;51.176;6.738;2023-01-08T06:14:03;9.20;75.70
53268;DHT22;39156;51.176;6.738;2023-01-08T06:16:29;9.20;75.70
53268;DHT22;39156;51.176;6.738;2023-01-08T06:18:54;9.20;75.60
53268;DHT22;39156;51.176;6.738;2023-01-08T06:21:20;9.20;75.60
53268;DHT22;39156;51.176;6.738;2023-01-08T06:23:45;9.20;75.50
53268;DHT22;39156;51.176;6.738;2023-01-08T06:26:11;9.30;75.30
53268;DHT22;39156;51.176;6.738;2023-01-08T06:28:37;9.20;75.20
53268;DHT22;39156;51.176;6.738;2023-01-08T06:31:02;9.20;75.10
53268;DHT22;39156;51.176;6.738;2023-01-08T06:33:30;9.20;75.10
53268;DHT22;39156;51.176;6.738;2023-01-08T06:35:59;9.20;75.20
53268;DHT22;39156;51.176;6.738;2023-01-08T06:38:29;9.30;74.40
53268;DHT22;39156;51.176;6.738;2023-01-08T06:40:55;9.20;73.80
53268;DHT22;39156;51.176;6.738;2023-01-08T06:43:21;9.30;73.90
53268;DHT22;39156;51.176;6.738;2023-01-08T06:45:53;9.10;73.90
53268;DHT22;39156;51.176;6.738;2023-01-08T06:48:19;9.00;73.80
53268;DHT22;39156;51.176;6.738;2023-01-08T06:50:45;8.90;73.60
53268;DHT22;39156;51.176;6.738;2023-01-08T06:53:10;8.90;73.90
53268;DHT22;39156;51.176;6.738;2023-01-08T06:55:36;8.80;74.10
53268;DHT22;39156;51.176;6.738;2023-01-08T06:58:02;8.80;74.20
53268;DHT22;39156;51.176;6.738;2023-01-08T07:00:28;8.80;74.40
53268;DHT22;39156;51.176;6.738;2023-01-08T07:02:54;8.70;74.60
53268;DHT22;39156;51.176;6.738;2023-01-08T07:05:20;8.70;74.70
53268;DHT22;39156;51.176;6.738;2023-01-08T07:07:46;8.70;74.80
53268;DHT22;39156;51.176;6.738;2023-01-08T07:10:12;8.70;75.10
53268;DHT22;39156;51.176;6.738;2023-01-08T07:12:38;8.60;75.30
53268;DHT22;39156;51.176;6.738;2023-01-08T07:15:04;8.70;75.30
53268;DHT22;39156;51.176;6.738;2023-01-08T07:17:31;8.70;75.40
53268;DHT22;39156;51.176;6.738;2023-01-08T07:19:57;8.60;75.40
53268;DHT22;39156;51.176;6.738;2023-01-08T07:22:23;8.60;75.40
53268;DHT22;39156;51.176;6.738;2023-01-08T07:24:53;8.50;75.30
53268;DHT22;39156;51.176;6.738;2023-01-08T07:27:18;8.60;75.50
53268;DHT22;39156;51.176;6.738;2023-01-08T07:29:44;8.60;75.60
53268;DHT22;39156;51.176;6.738;2023-01-08T07:32:10;8.60;75.50
53268;DHT22;39156;51.176;6.738;2023-01-08T07:34:35;8.60;75.50
53268;DHT22;39156;51.176;6.738;2023-01-08T07:37:02;8.60;75.10
53268;DHT22;39156;51.176;6.738;2023-01-08T07:39:28;8.50;75.00
53268;DHT22;39156;51.176;6.738;2023-01-08T07:41:53;8.50;74.90
53268;DHT22;39156;51.176;6.738;2023-01-08T07:44:19;8.50;74.90
53268;DHT22;39156;51.176;6.738;2023-01-08T07:46:45;8.50;74.80
53268;DHT22;39156;51.176;6.738;2023-01-08T07:49:11;8.50;74.80
53268;DHT22;39156;51.176;6.738;2023-01-08T07:51:36;8.40;74.70
53268;DHT22;39156;51.176;6.738;2023-01-08T07:54:02;8.50;74.60
53268;DHT22;39156;51.176;6.738;2023-01-08T07:56:28;8.50;74.70
53268;DHT22;39156;51.176;6.738;2023-01-08T07:58:53;8.50;74.60
53268;DHT22;39156;51.176;6.738;2023-01-08T08:01:19;8.50;74.50
53268;DHT22;39156;51.176;6.738;2023-01-08T08:03:45;8.40;74.50
53268;DHT22;39156;51.176;6.738;2023-01-08T08:06:11;8.40;74.60
53268;DHT22;39156;51.176;6.738;2023-01-08T08:08:36;8.50;74.60
53268;DHT22;39156;51.176;6.738;2023-01-08T08:11:02;8.40;74.60
53268;DHT22;39156;51.176;6.738;2023-01-08T08:13:28;8.40;74.50
53268;DHT22;39156;51.176;6.738;2023-01-08T08:15:53;8.50;74.50
53268;DHT22;39156;51.176;6.738;2023-01-08T08:18:19;8.30;74.30
53268;DHT22;39156;51.176;6.738;2023-01-08T08:20:45;8.40;74.40
53268;DHT22;39156;51.176;6.738;2023-01-08T08:23:13;8.30;74.30
53268;DHT22;39156;51.176;6.738;2023-01-08T08:25:40;8.30;74.40
53268;DHT22;39156;51.176;6.738;2023-01-08T08:28:08;8.20;74.40
53268;DHT22;39156;51.176;6.738;2023-01-08T08:30:35;8.20;74.50
53268;DHT22;39156;51.176;6.738;2023-01-08T08:33:03;8.10;74.60
53268;DHT22;39156;51.176;6.738;2023-01-08T08:35:31;8.10;74.70
53268;DHT22;39156;51.176;6.738;2023-01-08T08:37:57;8.20;74.50
53268;DHT22;39156;51.176;6.738;2023-01-08T08:40:23;8.10;74.60
53268;DHT22;39156;51.176;6.738;2023-01-08T08:43:00;8.10;74.50
53268;DHT22;39156;51.176;6.738;2023-01-08T08:45:27;8.10;74.40
53268;DHT22;39156;51.176;6.738;2023-01-08T08:47:54;8.10;74.50
53268;DHT22;39156;51.176;6.738;2023-01-08T08:50:20;8.10;74.30
53268;DHT22;39156;51.176;6.738;2023-01-08T08:52:46;8.00;74.30
53268;DHT22;39156;51.176;6.738;2023-01-08T08:55:13;8.10;74.40
53268;DHT22;39156;51.176;6.738;2023-01-08T08:57:46;8.00;74.30
53268;DHT22;39156;51.176;6.738;2023-01-08T09:00:13;8.00;74.40
53268;DHT22;39156;51.176;6.738;2023-01-08T09:02:39;8.10;75.10
53268;DHT22;39156;51.176;6.738;2023-01-08T09:05:05;8.30;75.60
53268;DHT22;39156;51.176;6.738;2023-01-08T09:07:31;8.40;76.10
53268;DHT22;39156;51.176;6.738;2023-01-08T09:09:57;8.60;76.30
53268;DHT22;39156;51.176;6.738;2023-01-08T09:12:22;8.80;76.60
53268;DHT22;39156;51.176;6.738;2023-01-08T09:14:48;9.10;76.60
53268;DHT22;39156;51.176;6.738;2023-01-08T09:17:19;9.50;77.20
53268;DHT22;39156;51.176;6.738;2023-01-08T09:19:46;9.80;77.40
53268;DHT22;39156;51.176;6.738;2023-01-08T09:22:11;10.30;76.60
53268;DHT22;39156;51.176;6.738;2023-01-08T09:24:37;10.70;75.90
53268;DHT22;39156;51.176;6.738;2023-01-08T09:27:03;11.10;75.70
53268;DHT22;39156;51.176;6.738;2023-01-08T09:29:28;11.50;75.10
53268;DHT22;39156;51.176;6.738;2023-01-08T09:31:54;11.80;73.70
53268;DHT22;39156;51.176;6.738;2023-01-08T09:34:20;12.10;72.10
53268;DHT22;39156;51.176;6.738;2023-01-08T09:36:46;12.30;70.70
53268;DHT22;39156;51.176;6.738;2023-01-08T09:39:11;12.40;69.50
53268;DHT22;39156;51.176;6.738;2023-01-08T09:41:41;12.40;68.70
53268;DHT22;39156;51.176;6.738;2023-01-08T09:44:18;12.40;68.40
53268;DHT22;39156;51.176;6.738;2023-01-08T09:46:46;12.50;67.70
53268;DHT22;39156;51.176;6.738;2023-01-08T09:49:23;12.60;68.10
53268;DHT22;39156;51.176;6.738;2023-01-08T09:51:53;12.60;66.90
53268;DHT22;39156;51.176;6.738;2023-01-08T09:54:22;12.70;67.10
53268;DHT22;39156;51.176;6.738;2023-01-08T09:56:49;12.70;66.90
53268;DHT22;39156;51.176;6.738;2023-01-08T09:59:16;12.80;67.90
53268;DHT22;39156;51.176;6.738;2023-01-08T10:01:43;13.00;68.20
53268;DHT22;39156;51.176;6.738;2023-01-08T10:04:36;13.20;68.10
53268;DHT22;39156;51.176;6.738;2023-01-08T10:07:12;13.50;66.20
53268;DHT22;39156;51.176;6.738;2023-01-08T10:09:50;13.70;65.50
53268;DHT22;39156;51.176;6.738;2023-01-08T10:12:30;14.00;66.60
53268;DHT22;39156;51.176;6.738;2023-01-08T10:15:00;14.20;64.40
53268;DHT22;39156;51.176;6.738;2023-01-08T10:17:48;14.40;64.90
53268;DHT22;39156;51.176;6.738;2023-01-08T10:20:22;14.70;61.70
53268;DHT22;39156;51.176;6.738;2023-01-08T10:22:50;14.90;63.00
53268;DHT22;39156;51.176;6.738;2023-01-08T10:25:23;15.00;62.50
53268;DHT22;39156;51.176;6.738;2023-01-08T10:27:58;15.10;61.60
53268;DHT22;39156;51.176;6.738;2023-01-08T10:30:36;15.10;60.50
53268;DHT22;39156;51.176;6.738;2023-01-08T10:34:05;15.10;59.60
53268;DHT22;39156;51.176;6.738;2023-01-08T10:36:06;15.00;59.30
53268;DHT22;39156;51.176;6.738;2023-01-08T10:38:35;14.90;59.90
53268;DHT22;39156;51.176;6.738;2023-01-08T10:41:18;14.80;60.10
53268;DHT22;39156;51.176;6.738;2023-01-08T10:43:55;14.60;60.00
53268;DHT22;39156;51.176;6.738;2023-01-08T10:46:30;14.40;59.60
53268;DHT22;39156;51.176;6.738;2023-01-08T10:49:02;14.20;60.20
53268;DHT22;39156;51.176;6.738;2023-01-08T10:51:30;14.10;60.10
53268;DHT22;39156;51.176;6.738;2023-01-08T10:54:00;13.90;60.60
53268;DHT22;39156;51.176;6.738;2023-01-08T10:56:42;13.80;60.50
53268;DHT22;39156;51.176;6.738;2023-01-08T10:59:19;13.60;60.70
53268;DHT22;39156;51.176;6.738;2023-01-08T11:01:46;13.40;60.50
53268;DHT22;39156;51.176;6.738;2023-01-08T11:04:31;13.20;61.00
53268;DHT22;39156;51.176;6.738;2023-01-08T11:07:03;13.10;61.40
53268;DHT22;39156;51.176;6.738;2023-01-08T11:09:32;13.00;61.60
53268;DHT22;39156;51.176;6.738;2023-01-08T11:12:02;12.90;62.00
53268;DHT22;39156;51.176;6.738;2023-01-08T11:14:32;12.80;62.20
53268;DHT22;39156;51.176;6.738;2023-01-08T11:16:59;12.70;62.60
53268;DHT22;39156;51.176;6.738;2023-01-08T11:19:31;12.60;63.00
53268;DHT22;39156;51.176;6.738;2023-01-08T11:22:04;12.60;63.00
53268;DHT22;39156;51.176;6.738;2023-01-08T11:24:37;12.50;62.80
53268;DHT22;39156;51.176;6.738;2023-01-08T11:30:12;12.50;63.00
53268;DHT22;39156;51.176;6.738;2023-01-08T11:32:50;12.40;62.60
53268;DHT22;39156;51.176;6.738;2023-01-08T11:37:57;12.30;63.10
53268;DHT22;39156;51.176;6.738;2023-01-08T11:49:34;12.00;63.60
53268;DHT22;39156;51.176;6.738;2023-01-08T11:58:47;11.80;63.30
53268;DHT22;39156;51.176;6.738;2023-01-08T12:01:35;11.80;63.60
53268;DHT22;39156;51.176;6.738;2023-01-08T12:07:06;11.60;64.40
53268;DHT22;39156;51.176;6.738;2023-01-08T12:09:40;11.50;64.90
53268;DHT22;39156;51.176;6.738;2023-01-08T12:27:22;10.80;66.50
53268;DHT22;39156;51.176;6.738;2023-01-08T12:30:17;10.80;66.20
53268;DHT22;39156;51.176;6.738;2023-01-08T12:33:04;10.70;66.40
53268;DHT22;39156;51.176;6.738;2023-01-08T12:35:41;10.60;66.60
53268;DHT22;39156;51.176;6.738;2023-01-08T12:38:20;10.70;66.70
53268;DHT22;39156;51.176;6.738;2023-01-08T12:40:54;10.60;66.60
53268;DHT22;39156;51.176;6.738;2023-01-08T12:46:14;10.60;66.90
53268;DHT22;39156;51.176;6.738;2023-01-08T12:48:41;10.60;67.10
53268;DHT22;39156;51.176;6.738;2023-01-08T12:56:32;10.70;65.70
53268;DHT22;39156;51.176;6.738;2023-01-08T13:05:29;10.80;65.10
53268;DHT22;39156;51.176;6.738;2023-01-08T13:08:21;10.80;64.70
53268;DHT22;39156;51.176;6.738;2023-01-08T13:10:53;10.90;65.00
53268;DHT22;39156;51.176;6.738;2023-01-08T13:13:27;10.90;64.70
53268;DHT22;39156;51.176;6.738;2023-01-08T13:18:38;10.90;64.10
53268;DHT22;39156;51.176;6.738;2023-01-08T13:21:05;10.90;64.40
53268;DHT22;39156;51.176;6.738;2023-01-08T13:23:34;10.90;63.50
53268;DHT22;39156;51.176;6.738;2023-01-08T13:26:01;10.80;63.20
53268;DHT22;39156;51.176;6.738;2023-01-08T13:28:42;10.90;63.50
53268;DHT22;39156;51.176;6.738;2023-01-08T13:33:48;10.90;62.20
53268;DHT22;39156;51.176;6.738;2023-01-08T13:36:28;10.90;62.60
53268;DHT22;39156;51.176;6.738;2023-01-08T13:41:37;10.80;62.30
53268;DHT22;39156;51.176;6.738;2023-01-08T13:44:37;10.90;62.30
53268;DHT22;39156;51.176;6.738;2023-01-08T13:47:21;10.90;62.20
53268;DHT22;39156;51.176;6.738;2023-01-08T13:49:52;10.90;62.50
53268;DHT22;39156;51.176;6.738;2023-01-08T13:52:32;10.90;62.60
53268;DHT22;39156;51.176;6.738;2023-01-08T13:55:13;10.90;61.90
53268;DHT22;39156;51.176;6.738;2023-01-08T13:57:52;10.90;61.90
53268;DHT22;39156;51.176;6.738;2023-01-08T14:00:30;10.90;61.90
53268;DHT22;39156;51.176;6.738;2023-01-08T14:03:24;10.90;62.10
53268;DHT22;39156;51.176;6.738;2023-01-08T14:11:19;10.90;61.40
53268;DHT22;39156;51.176;6.738;2023-01-08T14:13:45;10.80;61.50
53268;DHT22;39156;51.176;6.738;2023-01-08T14:16:15;10.90;61.60
53268;DHT22;39156;51.176;6.738;2023-01-08T14:18:44;10.80;61.50
53268;DHT22;39156;51.176;6.738;2023-01-08T14:21:13;10.80;61.70
53268;DHT22;39156;51.176;6.738;2023-01-08T14:23:48;10.80;61.90
53268;DHT22;39156;51.176;6.738;2023-01-08T14:26:35;10.80;61.90
53268;DHT22;39156;51.176;6.738;2023-01-08T14:29:13;10.70;61.40
53268;DHT22;39156;51.176;6.738;2023-01-08T14:31:45;10.80;61.70
53268;DHT22;39156;51.176;6.738;2023-01-08T14:34:13;10.70;61.60
53268;DHT22;39156;51.176;6.738;2023-01-08T14:36:40;10.70;61.70
53268;DHT22;39156;51.176;6.738;2023-01-08T14:39:11;10.70;61.80
53268;DHT22;39156;51.176;6.738;2023-01-08T14:41:43;10.60;61.40
53268;DHT22;39156;51.176;6.738;2023-01-08T14:44:27;10.60;61.60
53268;DHT22;39156;51.176;6.738;2023-01-08T14:46:53;10.50;61.60
53268;DHT22;39156;51.176;6.738;2023-01-08T14:49:26;10.50;61.50
53268;DHT22;39156;51.176;6.738;2023-01-08T14:51:54;10.50;61.60
53268;DHT22;39156;51.176;6.738;2023-01-08T14:54:32;10.40;61.60
53268;DHT22;39156;51.176;6.738;2023-01-08T14:56:59;10.40;61.30
53268;DHT22;39156;51.176;6.738;2023-01-08T14:59:30;10.40;61.30
53268;DHT22;39156;51.176;6.738;2023-01-08T15:02:00;10.30;61.20
53268;DHT22;39156;51.176;6.738;2023-01-08T15:04:28;10.30;61.40
53268;DHT22;39156;51.176;6.738;2023-01-08T15:09:33;10.30;61.40
53268;DHT22;39156;51.176;6.738;2023-01-08T15:12:02;10.20;61.60
53268;DHT22;39156;51.176;6.738;2023-01-08T15:14:30;10.20;61.80
53268;DHT22;39156;51.176;6.738;2023-01-08T15:17:09;10.20;62.10
53268;DHT22;39156;51.176;6.738;2023-01-08T15:19:50;10.20;62.50
53268;DHT22;39156;51.176;6.738;2023-01-08T15:22:23;10.10;62.50
53268;DHT22;39156;51.176;6.738;2023-01-08T15:24:55;10.00;62.50
53268;DHT22;39156;51.176;6.738;2023-01-08T15:27:23;10.00;62.70
53268;DHT22;39156;51.176;6.738;2023-01-08T15:29:51;9.90;62.90
53268;DHT22;39156;51.176;6.738;2023-01-08T15:32:30;9.90;63.10
53268;DHT22;39156;51.176;6.738;2023-01-08T15:34:59;9.90;63.50
53268;DHT22;39156;51.176;6.738;2023-01-08T15:37:25;10.00;63.50
53268;DHT22;39156;51.176;6.738;2023-01-08T15:39:51;9.90;63.60
53268;DHT22;39156;51.176;6.738;2023-01-08T15:42:26;9.90;63.70
53268;DHT22;39156;51.176;6.738;2023-01-08T15:45:16;10.00;63.90
53268;DHT22;39156;51.176;6.738;2023-01-08T15:47:43;9.90;63.70
53268;DHT22;39156;51.176;6.738;2023-01-08T15:50:10;9.90;64.00
53268;DHT22;39156;51.176;6.738;2023-01-08T15:52:37;9.80;64.10
53268;DHT22;39156;51.176;6.738;2023-01-08T15:55:05;9.80;64.10
53268;DHT22;39156;51.176;6.738;2023-01-08T15:57:32;9.80;64.00
53268;DHT22;39156;51.176;6.738;2023-01-08T15:59:58;9.90;64.10
53268;DHT22;39156;51.176;6.738;2023-01-08T16:02:24;9.80;64.00
53268;DHT22;39156;51.176;6.738;2023-01-08T16:04:51;9.80;63.90
53268;DHT22;39156;51.176;6.738;2023-01-08T16:07:17;9.80;63.80
53268;DHT22;39156;51.176;6.738;2023-01-08T16:09:43;9.80;63.80
53268;DHT22;39156;51.176;6.738;2023-01-08T16:12:08;9.80;63.80
53268;DHT22;39156;51.176;6.738;2023-01-08T16:14:34;9.80;63.80
53268;DHT22;39156;51.176;6.738;2023-01-08T16:17:02;9.70;63.80
53268;DHT22;39156;51.176;6.738;2023-01-08T16:19:31;9.70;64.00
53268;DHT22;39156;51.176;6.738;2023-01-08T16:21:58;9.70;64.20
53268;DHT22;39156;51.176;6.738;2023-01-08T16:24:24;9.70;64.40
53268;DHT22;39156;51.176;6.738;2023-01-08T16:26:50;9.60;64.60
53268;DHT22;39156;51.176;6.738;2023-01-08T16:29:16;9.60;64.80
53268;DHT22;39156;51.176;6.738;2023-01-08T16:31:46;9.40;64.70
53268;DHT22;39156;51.176;6.738;2023-01-08T16:34:13;9.50;64.90
53268;DHT22;39156;51.176;6.738;2023-01-08T16:36:39;9.40;64.90
53268;DHT22;39156;51.176;6.738;2023-01-08T16:39:05;9.40;65.00
53268;DHT22;39156;51.176;6.738;2023-01-08T16:41:31;9.30;65.00
53268;DHT22;39156;51.176;6.738;2023-01-08T16:43:57;9.40;65.00
53268;DHT22;39156;51.176;6.738;2023-01-08T16:46:23;9.20;65.10
53268;DHT22;39156;51.176;6.738;2023-01-08T16:48:49;9.20;65.20
53268;DHT22;39156;51.176;6.738;2023-01-08T16:51:16;9.20;65.20
53268;DHT22;39156;51.176;6.738;2023-01-08T16:53:41;9.30;65.40
53268;DHT22;39156;51.176;6.738;2023-01-08T16:56:08;9.20;65.40
53268;DHT22;39156;51.176;6.738;2023-01-08T16:58:34;9.20;65.50
53268;DHT22;39156;51.176;6.738;2023-01-08T17:01:01;9.10;65.60
53268;DHT22;39156;51.176;6.738;2023-01-08T17:03:31;9.10;65.60
53268;DHT22;39156;51.176;6.738;2023-01-08T17:05:56;9.10;65.80
53268;DHT22;39156;51.176;6.738;2023-01-08T17:08:26;9.00;65.90
53268;DHT22;39156;51.176;6.738;2023-01-08T17:10:52;8.90;65.80
53268;DHT22;39156;51.176;6.738;2023-01-08T17:13:18;8.90;66.00
53268;DHT22;39156;51.176;6.738;2023-01-08T17:15:44;8.80;66.10
53268;DHT22;39156;51.176;6.738;2023-01-08T17:18:10;8.80;66.20
53268;DHT22;39156;51.176;6.738;2023-01-08T17:20:36;8.80;66.40
53268;DHT22;39156;51.176;6.738;2023-01-08T17:23:01;8.70;66.40
53268;DHT22;39156;51.176;6.738;2023-01-08T17:25:27;8.60;66.50
53268;DHT22;39156;51.176;6.738;2023-01-08T17:27:53;8.60;66.70